sensor_id;sensor_type;location;lat;lon;timestamp;P1;durP1;ratioP1;P2;durP2;ratioP2
62951;SDS011;52163;52.212;-1.002;2022-12-10T00:01:48;15.10;;;6.80;;
62951;SDS011;52163;52.212;-1.002;2022-12-10T00:04:15;18.20;;;9.60;;
62951;SDS011;52163;52.212;-1.002;2022-12-10T00:06:41;22.60;;;11.60;;
62951;SDS011;52163;52.212;-1.002;2022-12-10T00:09:09;19.10;;;9.60;;
62951;SDS011;52163;52.212;-1.002;2022-12-10T00:11:37;15.00;;;7.60;;
62951;SDS011;52163;52.212;-1.002;2022-12-10T00:14:04;14.40;;;8.00;;
62951;SDS011;52163;52.212;-1.002;2022-12-10T00:16:32;11.90;;;6.70;;
62951;SDS011;52163;52.212;-1.002;2022-12-10T00:18:58;12.20;;;6.40;;
62951;SDS011;52163;52.212;-1.002;2022-12-10T00:21:25;13.00;;;6.70;;
62951;SDS011;52163;52.212;-1.002;2022-12-10T00:23:53;13.70;;;6.60;;
62951;SDS011;52163;52.212;-1.002;2022-12-10T00:26:27;13.80;;;6.00;;
62951;SDS011;52163;52.212;-1.002;2022-12-10T00:28:54;12.90;;;6.00;;
62951;SDS011;52163;52.212;-1.002;2022-12-10T00:31:24;15.40;;;6.50;;
62951;SDS011;52163;52.212;-1.002;2022-12-10T00:33:55;21.60;;;8.90;;
62951;SDS011;52163;52.212;-1.002;2022-12-10T00:36:24;21.40;;;10.10;;
62951;SDS011;52163;52.212;-1.002;2022-12-10T00:38:58;16.20;;;9.20;;
62951;SDS011;52163;52.212;-1.002;2022-12-10T00:41:24;16.30;;;7.50;;
62951;SDS011;52163;52.212;-1.002;2022-12-10T00:43:51;9.50;;;5.50;;
62951;SDS011;52163;52.212;-1.002;2022-12-10T00:46:17;12.20;;;6.60;;
62951;SDS011;52163;52.212;-1.002;2022-12-10T00:48:44;10.70;;;6.60;;
62951;SDS011;52163;52.212;-1.002;2022-12-10T00:51:20;10.70;;;5.80;;
62951;SDS011;52163;52.212;-1.002;2022-12-10T00:53:47;10.80;;;6.20;;
62951;SDS011;52163;52.212;-1.002;2022-12-10T00:56:15;17.10;;;6.60;;
62951;SDS011;52163;52.212;-1.002;2022-12-10T00:58:42;11.30;;;5.60;;
62951;SDS011;52163;52.212;-1.002;2022-12-10T01:01:10;11.00;;;6.00;;
62951;SDS011;52163;52.212;-1.002;2022-12-10T01:03:39;13.80;;;7.90;;
62951;SDS011;52163;52.212;-1.002;2022-12-10T01:06:12;20.00;;;9.70;;
62951;SDS011;52163;52.212;-1.002;2022-12-10T01:08:46;15.50;;;7.70;;
62951;SDS011;52163;52.212;-1.002;2022-12-10T01:11:14;11.20;;;6.00;;
62951;SDS011;52163;52.212;-1.002;2022-12-10T01:13:41;10.80;;;5.50;;
62951;SDS011;52163;52.212;-1.002;2022-12-10T01:16:12;14.60;;;6.40;;
62951;SDS011;52163;52.212;-1.002;2022-12-10T01:18:38;12.10;;;5.80;;
62951;SDS011;52163;52.212;-1.002;2022-12-10T01:21:06;12.40;;;6.10;;
62951;SDS011;52163;52.212;-1.002;2022-12-10T01:23:35;9.70;;;5.10;;
62951;SDS011;52163;52.212;-1.002;2022-12-10T01:26:03;9.30;;;5.80;;
62951;SDS011;52163;52.212;-1.002;2022-12-10T01:28:30;9.00;;;5.00;;
62951;SDS011;52163;52.212;-1.002;2022-12-10T01:30:59;10.20;;;5.20;;
62951;SDS011;52163;52.212;-1.002;2022-12-10T01:33:29;11.40;;;6.40;;
62951;SDS011;52163;52.212;-1.002;2022-12-10T01:35:56;13.40;;;7.30;;
62951;SDS011;52163;52.212;-1.002;2022-12-10T01:38:22;17.90;;;8.30;;
62951;SDS011;52163;52.212;-1.002;2022-12-10T01:40:47;12.80;;;7.10;;
62951;SDS011;52163;52.212;-1.002;2022-12-10T01:43:13;9.50;;;5.50;;
62951;SDS011;52163;52.212;-1.002;2022-12-10T01:45:39;10.20;;;5.70;;
62951;SDS011;52163;52.212;-1.002;2022-12-10T01:48:05;10.00;;;5.60;;
62951;SDS011;52163;52.212;-1.002;2022-12-10T01:50:31;10.20;;;5.60;;
62951;SDS011;52163;52.212;-1.002;2022-12-10T01:52:57;9.60;;;5.60;;
62951;SDS011;52163;52.212;-1.002;2022-12-10T01:58:06;10.80;;;5.20;;
62951;SDS011;52163;52.212;-1.002;2022-12-10T02:00:32;9.70;;;5.30;;
62951;SDS011;52163;52.212;-1.002;2022-12-10T02:03:05;13.80;;;7.90;;
62951;SDS011;52163;52.212;-1.002;2022-12-10T02:05:42;18.70;;;9.60;;
62951;SDS011;52163;52.212;-1.002;2022-12-10T02:13:42;11.40;;;5.30;;
62951;SDS011;52163;52.212;-1.002;2022-12-10T02:16:15;8.90;;;5.30;;
62951;SDS011;52163;52.212;-1.002;2022-12-10T02:21:21;12.20;;;5.80;;
62951;SDS011;52163;52.212;-1.002;2022-12-10T02:23:56;11.70;;;4.90;;
62951;SDS011;52163;52.212;-1.002;2022-12-10T02:31:44;16.00;;;6.20;;
62951;SDS011;52163;52.212;-1.002;2022-12-10T02:34:13;15.20;;;7.30;;
62951;SDS011;52163;52.212;-1.002;2022-12-10T02:36:41;14.30;;;8.40;;
62951;SDS011;52163;52.212;-1.002;2022-12-10T02:39:12;14.30;;;7.80;;
62951;SDS011;52163;52.212;-1.002;2022-12-10T02:41:45;10.30;;;5.40;;
62951;SDS011;52163;52.212;-1.002;2022-12-10T02:44:15;8.40;;;4.70;;
62951;SDS011;52163;52.212;-1.002;2022-12-10T02:46:43;9.30;;;5.30;;
62951;SDS011;52163;52.212;-1.002;2022-12-10T02:49:11;10.70;;;5.00;;
62951;SDS011;52163;52.212;-1.002;2022-12-10T02:51:39;7.60;;;4.50;;
62951;SDS011;52163;52.212;-1.002;2022-12-10T02:54:07;8.80;;;5.10;;
62951;SDS011;52163;52.212;-1.002;2022-12-10T03:05:06;12.50;;;6.40;;
62951;SDS011;52163;52.212;-1.002;2022-12-10T03:12:58;7.80;;;4.40;;
62951;SDS011;52163;52.212;-1.002;2022-12-10T03:15:26;7.60;;;5.10;;
62951;SDS011;52163;52.212;-1.002;2022-12-10T03:17:55;7.70;;;4.50;;
62951;SDS011;52163;52.212;-1.002;2022-12-10T03:20:22;8.20;;;5.10;;
62951;SDS011;52163;52.212;-1.002;2022-12-10T03:22:50;9.30;;;4.80;;
62951;SDS011;52163;52.212;-1.002;2022-12-10T03:25:18;9.20;;;5.90;;
62951;SDS011;52163;52.212;-1.002;2022-12-10T03:27:48;10.10;;;4.20;;
62951;SDS011;52163;52.212;-1.002;2022-12-10T03:30:16;6.30;;;4.60;;
62951;SDS011;52163;52.212;-1.002;2022-12-10T03:32:42;10.20;;;5.20;;
62951;SDS011;52163;52.212;-1.002;2022-12-10T03:35:09;15.10;;;7.90;;
62951;SDS011;52163;52.212;-1.002;2022-12-10T03:37:36;18.50;;;8.00;;
62951;SDS011;52163;52.212;-1.002;2022-12-10T03:40:02;13.30;;;7.00;;
62951;SDS011;52163;52.212;-1.002;2022-12-10T03:42:30;7.70;;;5.30;;
62951;SDS011;52163;52.212;-1.002;2022-12-10T03:44:55;9.60;;;4.40;;
62951;SDS011;52163;52.212;-1.002;2022-12-10T03:47:21;10.10;;;4.60;;
62951;SDS011;52163;52.212;-1.002;2022-12-10T03:49:48;6.00;;;4.00;;
62951;SDS011;52163;52.212;-1.002;2022-12-10T03:52:13;7.10;;;4.70;;
62951;SDS011;52163;52.212;-1.002;2022-12-10T03:54:39;7.10;;;4.80;;
62951;SDS011;52163;52.212;-1.002;2022-12-10T03:57:04;8.00;;;5.00;;
62951;SDS011;52163;52.212;-1.002;2022-12-10T03:59:29;9.70;;;4.90;;
62951;SDS011;52163;52.212;-1.002;2022-12-10T04:01:55;8.10;;;5.10;;
62951;SDS011;52163;52.212;-1.002;2022-12-10T04:04:20;10.00;;;4.70;;
62951;SDS011;52163;52.212;-1.002;2022-12-10T04:06:46;12.30;;;6.70;;
62951;SDS011;52163;52.212;-1.002;2022-12-10T04:09:12;16.50;;;8.60;;
62951;SDS011;52163;52.212;-1.002;2022-12-10T04:11:39;15.60;;;7.10;;
62951;SDS011;52163;52.212;-1.002;2022-12-10T04:14:04;9.90;;;5.60;;
62951;SDS011;52163;52.212;-1.002;2022-12-10T04:16:48;9.70;;;4.10;;
62951;SDS011;52163;52.212;-1.002;2022-12-10T04:19:16;8.50;;;3.70;;
62951;SDS011;52163;52.212;-1.002;2022-12-10T04:21:43;8.40;;;4.40;;
62951;SDS011;52163;52.212;-1.002;2022-12-10T04:24:29;6.30;;;3.80;;
62951;SDS011;52163;52.212;-1.002;2022-12-10T04:27:28;8.20;;;5.10;;
62951;SDS011;52163;52.212;-1.002;2022-12-10T04:29:56;9.10;;;5.00;;
62951;SDS011;52163;52.212;-1.002;2022-12-10T04:32:23;8.40;;;4.40;;
62951;SDS011;52163;52.212;-1.002;2022-12-10T04:34:50;11.80;;;5.00;;
62951;SDS011;52163;52.212;-1.002;2022-12-10T04:37:16;8.70;;;4.40;;
62951;SDS011;52163;52.212;-1.002;2022-12-10T04:39:43;12.80;;;7.00;;
62951;SDS011;52163;52.212;-1.002;2022-12-10T04:42:08;11.80;;;6.80;;
62951;SDS011;52163;52.212;-1.002;2022-12-10T04:44:34;15.00;;;7.30;;
62951;SDS011;52163;52.212;-1.002;2022-12-10T04:47:00;9.70;;;5.60;;
62951;SDS011;52163;52.212;-1.002;2022-12-10T04:49:26;7.90;;;4.50;;
62951;SDS011;52163;52.212;-1.002;2022-12-10T04:51:52;7.60;;;4.40;;
62951;SDS011;52163;52.212;-1.002;2022-12-10T04:54:18;7.10;;;4.30;;
62951;SDS011;52163;52.212;-1.002;2022-12-10T04:56:44;7.40;;;4.20;;
62951;SDS011;52163;52.212;-1.002;2022-12-10T04:59:10;5.40;;;3.50;;
62951;SDS011;52163;52.212;-1.002;2022-12-10T05:01:37;7.60;;;4.40;;
62951;SDS011;52163;52.212;-1.002;2022-12-10T05:04:04;6.70;;;3.60;;
62951;SDS011;52163;52.212;-1.002;2022-12-10T05:06:31;7.00;;;4.00;;
62951;SDS011;52163;52.212;-1.002;2022-12-10T05:08:57;10.50;;;6.10;;
62951;SDS011;52163;52.212;-1.002;2022-12-10T05:11:24;10.60;;;6.30;;
62951;SDS011;52163;52.212;-1.002;2022-12-10T05:13:52;15.00;;;6.80;;
62951;SDS011;52163;52.212;-1.002;2022-12-10T05:16:20;7.80;;;4.80;;
62951;SDS011;52163;52.212;-1.002;2022-12-10T05:18:48;8.40;;;3.70;;
62951;SDS011;52163;52.212;-1.002;2022-12-10T05:21:15;7.90;;;3.90;;
62951;SDS011;52163;52.212;-1.002;2022-12-10T05:28:55;7.90;;;3.10;;
62951;SDS011;52163;52.212;-1.002;2022-12-10T05:33:49;5.60;;;3.60;;
62951;SDS011;52163;52.212;-1.002;2022-12-10T05:36:16;9.10;;;4.10;;
62951;SDS011;52163;52.212;-1.002;2022-12-10T05:38:43;10.30;;;5.00;;
62951;SDS011;52163;52.212;-1.002;2022-12-10T05:41:11;11.80;;;6.60;;
62951;SDS011;52163;52.212;-1.002;2022-12-10T05:43:38;8.80;;;5.50;;
62951;SDS011;52163;52.212;-1.002;2022-12-10T05:48:29;8.00;;;3.70;;
62951;SDS011;52163;52.212;-1.002;2022-12-10T05:50:55;7.00;;;3.50;;
62951;SDS011;52163;52.212;-1.002;2022-12-10T05:53:21;7.00;;;3.90;;
62951;SDS011;52163;52.212;-1.002;2022-12-10T05:55:47;6.10;;;3.10;;
62951;SDS011;52163;52.212;-1.002;2022-12-10T05:58:12;5.10;;;3.60;;
62951;SDS011;52163;52.212;-1.002;2022-12-10T06:00:39;5.80;;;3.40;;
62951;SDS011;52163;52.212;-1.002;2022-12-10T06:03:05;7.70;;;3.70;;
62951;SDS011;52163;52.212;-1.002;2022-12-10T06:05:39;11.00;;;4.50;;
62951;SDS011;52163;52.212;-1.002;2022-12-10T06:08:06;9.20;;;5.70;;
62951;SDS011;52163;52.212;-1.002;2022-12-10T06:10:35;10.30;;;5.80;;
62951;SDS011;52163;52.212;-1.002;2022-12-10T06:13:01;6.80;;;4.10;;
62951;SDS011;52163;52.212;-1.002;2022-12-10T06:15:28;8.60;;;3.50;;
62951;SDS011;52163;52.212;-1.002;2022-12-10T06:17:54;6.60;;;3.80;;
62951;SDS011;52163;52.212;-1.002;2022-12-10T06:20:21;8.50;;;4.90;;
62951;SDS011;52163;52.212;-1.002;2022-12-10T06:22:47;5.70;;;3.20;;
62951;SDS011;52163;52.212;-1.002;2022-12-10T06:25:12;6.50;;;3.40;;
62951;SDS011;52163;52.212;-1.002;2022-12-10T06:27:38;7.10;;;3.90;;
62951;SDS011;52163;52.212;-1.002;2022-12-10T06:30:04;6.40;;;3.30;;
62951;SDS011;52163;52.212;-1.002;2022-12-10T06:32:30;7.30;;;3.90;;
62951;SDS011;52163;52.212;-1.002;2022-12-10T06:34:56;9.20;;;3.80;;
62951;SDS011;52163;52.212;-1.002;2022-12-10T06:37:21;10.40;;;4.50;;
62951;SDS011;52163;52.212;-1.002;2022-12-10T06:39:47;9.00;;;5.40;;
62951;SDS011;52163;52.212;-1.002;2022-12-10T06:42:14;17.20;;;7.20;;
62951;SDS011;52163;52.212;-1.002;2022-12-10T06:44:40;10.00;;;4.90;;
62951;SDS011;52163;52.212;-1.002;2022-12-10T06:47:05;6.50;;;3.40;;
62951;SDS011;52163;52.212;-1.002;2022-12-10T06:49:30;7.30;;;3.70;;
62951;SDS011;52163;52.212;-1.002;2022-12-10T06:51:56;5.50;;;3.80;;
62951;SDS011;52163;52.212;-1.002;2022-12-10T06:54:21;5.30;;;3.20;;
62951;SDS011;52163;52.212;-1.002;2022-12-10T06:56:46;10.80;;;4.20;;
62951;SDS011;52163;52.212;-1.002;2022-12-10T06:59:12;7.60;;;4.10;;
62951;SDS011;52163;52.212;-1.002;2022-12-10T07:01:37;8.60;;;4.10;;
62951;SDS011;52163;52.212;-1.002;2022-12-10T07:04:04;5.90;;;3.60;;
62951;SDS011;52163;52.212;-1.002;2022-12-10T07:06:30;5.80;;;3.60;;
62951;SDS011;52163;52.212;-1.002;2022-12-10T07:08:56;5.70;;;3.20;;
62951;SDS011;52163;52.212;-1.002;2022-12-10T07:11:22;12.10;;;5.00;;
62951;SDS011;52163;52.212;-1.002;2022-12-10T07:13:49;11.50;;;6.00;;
62951;SDS011;52163;52.212;-1.002;2022-12-10T07:16:22;9.00;;;5.50;;
62951;SDS011;52163;52.212;-1.002;2022-12-10T07:18:50;7.20;;;4.10;;
62951;SDS011;52163;52.212;-1.002;2022-12-10T07:21:27;6.70;;;3.20;;
62951;SDS011;52163;52.212;-1.002;2022-12-10T07:23:55;4.70;;;3.30;;
62951;SDS011;52163;52.212;-1.002;2022-12-10T07:26:23;5.00;;;3.50;;
62951;SDS011;52163;52.212;-1.002;2022-12-10T07:28:50;5.00;;;3.20;;
62951;SDS011;52163;52.212;-1.002;2022-12-10T07:31:16;5.60;;;3.30;;
62951;SDS011;52163;52.212;-1.002;2022-12-10T07:33:41;6.50;;;3.20;;
62951;SDS011;52163;52.212;-1.002;2022-12-10T07:36:10;5.60;;;3.40;;
62951;SDS011;52163;52.212;-1.002;2022-12-10T07:38:37;5.60;;;3.60;;
62951;SDS011;52163;52.212;-1.002;2022-12-10T07:41:03;12.60;;;5.20;;
62951;SDS011;52163;52.212;-1.002;2022-12-10T07:43:38;13.10;;;5.60;;
62951;SDS011;52163;52.212;-1.002;2022-12-10T07:48:32;5.80;;;3.30;;
62951;SDS011;52163;52.212;-1.002;2022-12-10T07:50:59;6.00;;;3.10;;
62951;SDS011;52163;52.212;-1.002;2022-12-10T07:53:25;5.50;;;3.20;;
62951;SDS011;52163;52.212;-1.002;2022-12-10T07:55:50;6.50;;;3.50;;
62951;SDS011;52163;52.212;-1.002;2022-12-10T07:58:15;6.00;;;3.70;;
62951;SDS011;52163;52.212;-1.002;2022-12-10T08:00:41;8.50;;;5.40;;
62951;SDS011;52163;52.212;-1.002;2022-12-10T08:03:06;10.50;;;6.00;;
62951;SDS011;52163;52.212;-1.002;2022-12-10T08:05:32;10.60;;;6.20;;
62951;SDS011;52163;52.212;-1.002;2022-12-10T08:07:57;11.70;;;6.00;;
62951;SDS011;52163;52.212;-1.002;2022-12-10T08:10:22;12.70;;;6.30;;
62951;SDS011;52163;52.212;-1.002;2022-12-10T08:12:48;13.60;;;8.00;;
62951;SDS011;52163;52.212;-1.002;2022-12-10T08:15:13;16.80;;;8.90;;
62951;SDS011;52163;52.212;-1.002;2022-12-10T08:17:38;13.60;;;7.40;;
62951;SDS011;52163;52.212;-1.002;2022-12-10T08:20:04;7.60;;;4.80;;
62951;SDS011;52163;52.212;-1.002;2022-12-10T08:22:30;8.90;;;4.60;;
62951;SDS011;52163;52.212;-1.002;2022-12-10T08:24:56;9.50;;;4.90;;
62951;SDS011;52163;52.212;-1.002;2022-12-10T08:27:21;6.60;;;4.80;;
62951;SDS011;52163;52.212;-1.002;2022-12-10T08:29:46;8.20;;;4.40;;
62951;SDS011;52163;52.212;-1.002;2022-12-10T08:32:12;10.90;;;5.10;;
62951;SDS011;52163;52.212;-1.002;2022-12-10T08:34:37;10.60;;;4.80;;
62951;SDS011;52163;52.212;-1.002;2022-12-10T08:37:02;8.10;;;4.90;;
62951;SDS011;52163;52.212;-1.002;2022-12-10T08:39:28;6.80;;;4.30;;
62951;SDS011;52163;52.212;-1.002;2022-12-10T08:41:54;7.40;;;3.70;;
62951;SDS011;52163;52.212;-1.002;2022-12-10T08:44:19;7.70;;;4.20;;
62951;SDS011;52163;52.212;-1.002;2022-12-10T08:46:45;11.70;;;6.60;;
62951;SDS011;52163;52.212;-1.002;2022-12-10T08:49:10;13.70;;;6.00;;
62951;SDS011;52163;52.212;-1.002;2022-12-10T08:51:36;8.90;;;4.90;;
62951;SDS011;52163;52.212;-1.002;2022-12-10T08:54:01;5.80;;;3.80;;
62951;SDS011;52163;52.212;-1.002;2022-12-10T08:56:27;7.10;;;3.60;;
62951;SDS011;52163;52.212;-1.002;2022-12-10T08:58:53;6.90;;;3.40;;
62951;SDS011;52163;52.212;-1.002;2022-12-10T09:01:18;8.60;;;4.20;;
62951;SDS011;52163;52.212;-1.002;2022-12-10T09:03:44;7.70;;;4.00;;
62951;SDS011;52163;52.212;-1.002;2022-12-10T09:06:11;9.60;;;4.10;;
62951;SDS011;52163;52.212;-1.002;2022-12-10T09:08:38;8.40;;;4.40;;
62951;SDS011;52163;52.212;-1.002;2022-12-10T09:11:11;7.20;;;4.00;;
62951;SDS011;52163;52.212;-1.002;2022-12-10T09:13:42;8.70;;;4.50;;
62951;SDS011;52163;52.212;-1.002;2022-12-10T09:16:08;11.00;;;4.30;;
62951;SDS011;52163;52.212;-1.002;2022-12-10T09:18:34;9.90;;;4.90;;
62951;SDS011;52163;52.212;-1.002;2022-12-10T09:20:59;7.90;;;4.00;;
62951;SDS011;52163;52.212;-1.002;2022-12-10T09:23:25;5.90;;;3.30;;
62951;SDS011;52163;52.212;-1.002;2022-12-10T09:25:50;7.30;;;3.10;;
62951;SDS011;52163;52.212;-1.002;2022-12-10T09:28:15;5.00;;;3.00;;
62951;SDS011;52163;52.212;-1.002;2022-12-10T09:30:41;4.70;;;2.70;;
62951;SDS011;52163;52.212;-1.002;2022-12-10T09:33:06;5.30;;;3.10;;
62951;SDS011;52163;52.212;-1.002;2022-12-10T09:35:32;5.20;;;3.00;;
62951;SDS011;52163;52.212;-1.002;2022-12-10T09:37:58;7.70;;;3.40;;
62951;SDS011;52163;52.212;-1.002;2022-12-10T09:40:34;6.80;;;3.00;;
62951;SDS011;52163;52.212;-1.002;2022-12-10T09:43:40;7.60;;;3.10;;
62951;SDS011;52163;52.212;-1.002;2022-12-10T09:46:05;7.00;;;3.10;;
62951;SDS011;52163;52.212;-1.002;2022-12-10T09:48:58;6.40;;;3.90;;
62951;SDS011;52163;52.212;-1.002;2022-12-10T09:51:36;6.90;;;3.60;;
62951;SDS011;52163;52.212;-1.002;2022-12-10T09:54:17;5.90;;;2.90;;
62951;SDS011;52163;52.212;-1.002;2022-12-10T09:56:47;7.30;;;3.00;;
62951;SDS011;52163;52.212;-1.002;2022-12-10T09:59:59;8.40;;;2.90;;
62951;SDS011;52163;52.212;-1.002;2022-12-10T10:04:40;5.20;;;2.70;;
62951;SDS011;52163;52.212;-1.002;2022-12-10T10:07:06;12.80;;;4.10;;
62951;SDS011;52163;52.212;-1.002;2022-12-10T10:09:34;14.10;;;5.00;;
62951;SDS011;52163;52.212;-1.002;2022-12-10T10:12:10;19.60;;;5.30;;
62951;SDS011;52163;52.212;-1.002;2022-12-10T10:14:40;20.80;;;5.30;;
62951;SDS011;52163;52.212;-1.002;2022-12-10T10:17:09;14.10;;;6.00;;
62951;SDS011;52163;52.212;-1.002;2022-12-10T10:19:44;21.00;;;6.90;;
62951;SDS011;52163;52.212;-1.002;2022-12-10T10:22:10;14.90;;;5.50;;
62951;SDS011;52163;52.212;-1.002;2022-12-10T10:24:38;18.10;;;4.90;;
62951;SDS011;52163;52.212;-1.002;2022-12-10T10:27:13;12.90;;;4.60;;
62951;SDS011;52163;52.212;-1.002;2022-12-10T10:29:50;7.30;;;3.60;;
62951;SDS011;52163;52.212;-1.002;2022-12-10T10:32:22;10.20;;;4.50;;
62951;SDS011;52163;52.212;-1.002;2022-12-10T10:35:20;13.20;;;7.10;;
62951;SDS011;52163;52.212;-1.002;2022-12-10T10:37:55;9.30;;;5.80;;
62951;SDS011;52163;52.212;-1.002;2022-12-10T10:40:25;9.00;;;6.30;;
62951;SDS011;52163;52.212;-1.002;2022-12-10T10:42:54;14.20;;;8.30;;
62951;SDS011;52163;52.212;-1.002;2022-12-10T10:51:24;10.40;;;3.70;;
62951;SDS011;52163;52.212;-1.002;2022-12-10T10:53:39;4.90;;;2.70;;
62951;SDS011;52163;52.212;-1.002;2022-12-10T10:56:18;7.60;;;3.50;;
62951;SDS011;52163;52.212;-1.002;2022-12-10T10:58:52;13.00;;;6.00;;
62951;SDS011;52163;52.212;-1.002;2022-12-10T11:01:21;13.70;;;7.00;;
62951;SDS011;52163;52.212;-1.002;2022-12-10T11:03:53;12.90;;;6.60;;
62951;SDS011;52163;52.212;-1.002;2022-12-10T11:06:20;11.40;;;7.30;;
62951;SDS011;52163;52.212;-1.002;2022-12-10T11:08:47;10.70;;;5.80;;
62951;SDS011;52163;52.212;-1.002;2022-12-10T11:11:20;10.90;;;5.70;;
62951;SDS011;52163;52.212;-1.002;2022-12-10T11:13:48;5.00;;;3.40;;
62951;SDS011;52163;52.212;-1.002;2022-12-10T11:18:40;4.70;;;2.80;;
62951;SDS011;52163;52.212;-1.002;2022-12-10T11:31:57;6.60;;;3.90;;
62951;SDS011;52163;52.212;-1.002;2022-12-10T11:42:43;10.80;;;4.00;;
62951;SDS011;52163;52.212;-1.002;2022-12-10T11:50:46;7.30;;;3.80;;
62951;SDS011;52163;52.212;-1.002;2022-12-10T11:53:32;8.60;;;4.00;;
62951;SDS011;52163;52.212;-1.002;2022-12-10T11:56:21;10.00;;;4.00;;
62951;SDS011;52163;52.212;-1.002;2022-12-10T12:15:03;7.70;;;3.20;;
62951;SDS011;52163;52.212;-1.002;2022-12-10T12:17:43;9.20;;;3.30;;
62951;SDS011;52163;52.212;-1.002;2022-12-10T12:23:02;6.10;;;3.80;;
62951;SDS011;52163;52.212;-1.002;2022-12-10T12:25:38;7.20;;;3.90;;
62951;SDS011;52163;52.212;-1.002;2022-12-10T12:31:23;10.40;;;4.70;;
62951;SDS011;52163;52.212;-1.002;2022-12-10T12:36:54;8.10;;;4.10;;
62951;SDS011;52163;52.212;-1.002;2022-12-10T12:39:35;10.20;;;4.10;;
62951;SDS011;52163;52.212;-1.002;2022-12-10T12:45:17;6.10;;;3.80;;
62951;SDS011;52163;52.212;-1.002;2022-12-10T12:47:47;7.10;;;3.70;;
62951;SDS011;52163;52.212;-1.002;2022-12-10T12:50:30;4.80;;;3.00;;
62951;SDS011;52163;52.212;-1.002;2022-12-10T12:53:07;6.50;;;3.50;;
62951;SDS011;52163;52.212;-1.002;2022-12-10T12:55:45;6.10;;;3.10;;
62951;SDS011;52163;52.212;-1.002;2022-12-10T12:58:23;5.60;;;3.20;;
62951;SDS011;52163;52.212;-1.002;2022-12-10T13:00:57;5.10;;;3.10;;
62951;SDS011;52163;52.212;-1.002;2022-12-10T13:03:44;6.30;;;4.20;;
62951;SDS011;52163;52.212;-1.002;2022-12-10T13:11:36;5.40;;;3.10;;
62951;SDS011;52163;52.212;-1.002;2022-12-10T13:27:34;8.70;;;3.10;;
62951;SDS011;52163;52.212;-1.002;2022-12-10T13:30:03;5.30;;;2.90;;
62951;SDS011;52163;52.212;-1.002;2022-12-10T13:32:51;6.80;;;3.60;;
62951;SDS011;52163;52.212;-1.002;2022-12-10T13:35:27;6.50;;;3.40;;
62951;SDS011;52163;52.212;-1.002;2022-12-10T13:37:56;6.30;;;3.00;;
62951;SDS011;52163;52.212;-1.002;2022-12-10T13:46:20;7.00;;;3.10;;
62951;SDS011;52163;52.212;-1.002;2022-12-10T13:48:58;5.80;;;3.00;;
62951;SDS011;52163;52.212;-1.002;2022-12-10T13:56:47;4.60;;;2.80;;
62951;SDS011;52163;52.212;-1.002;2022-12-10T13:59:30;6.70;;;4.10;;
62951;SDS011;52163;52.212;-1.002;2022-12-10T14:07:46;5.20;;;2.70;;
62951;SDS011;52163;52.212;-1.002;2022-12-10T14:10:15;4.20;;;2.40;;
62951;SDS011;52163;52.212;-1.002;2022-12-10T14:12:43;4.70;;;2.60;;
62951;SDS011;52163;52.212;-1.002;2022-12-10T14:15:18;4.30;;;2.70;;
62951;SDS011;52163;52.212;-1.002;2022-12-10T14:17:48;7.60;;;3.90;;
62951;SDS011;52163;52.212;-1.002;2022-12-10T14:20:22;7.10;;;4.20;;
62951;SDS011;52163;52.212;-1.002;2022-12-10T14:22:50;6.10;;;4.80;;
62951;SDS011;52163;52.212;-1.002;2022-12-10T14:25:45;8.90;;;4.20;;
62951;SDS011;52163;52.212;-1.002;2022-12-10T14:28:12;9.00;;;4.50;;
62951;SDS011;52163;52.212;-1.002;2022-12-10T14:30:47;12.10;;;5.10;;
62951;SDS011;52163;52.212;-1.002;2022-12-10T14:33:17;6.30;;;3.90;;
62951;SDS011;52163;52.212;-1.002;2022-12-10T14:35:49;7.60;;;4.10;;
62951;SDS011;52163;52.212;-1.002;2022-12-10T14:38:33;8.60;;;4.20;;
62951;SDS011;52163;52.212;-1.002;2022-12-10T14:41:00;8.30;;;4.40;;
62951;SDS011;52163;52.212;-1.002;2022-12-10T14:43:31;6.50;;;4.00;;
62951;SDS011;52163;52.212;-1.002;2022-12-10T14:46:02;6.90;;;4.80;;
62951;SDS011;52163;52.212;-1.002;2022-12-10T14:48:29;7.40;;;4.30;;
62951;SDS011;52163;52.212;-1.002;2022-12-10T14:50:56;7.30;;;4.30;;
62951;SDS011;52163;52.212;-1.002;2022-12-10T14:53:28;8.80;;;4.20;;
62951;SDS011;52163;52.212;-1.002;2022-12-10T14:55:55;8.80;;;5.30;;
62951;SDS011;52163;52.212;-1.002;2022-12-10T14:58:48;10.80;;;5.40;;
62951;SDS011;52163;52.212;-1.002;2022-12-10T15:03:59;7.20;;;4.30;;
62951;SDS011;52163;52.212;-1.002;2022-12-10T15:06:26;7.30;;;4.50;;
62951;SDS011;52163;52.212;-1.002;2022-12-10T15:08:56;9.10;;;4.50;;
62951;SDS011;52163;52.212;-1.002;2022-12-10T15:11:23;6.50;;;4.10;;
62951;SDS011;52163;52.212;-1.002;2022-12-10T15:13:54;8.20;;;4.30;;
62951;SDS011;52163;52.212;-1.002;2022-12-10T15:16:43;6.30;;;4.70;;
62951;SDS011;52163;52.212;-1.002;2022-12-10T15:19:17;8.60;;;4.90;;
62951;SDS011;52163;52.212;-1.002;2022-12-10T15:21:46;10.70;;;6.50;;
62951;SDS011;52163;52.212;-1.002;2022-12-10T15:24:55;14.10;;;7.70;;
62951;SDS011;52163;52.212;-1.002;2022-12-10T15:27:21;16.20;;;8.60;;
62951;SDS011;52163;52.212;-1.002;2022-12-10T15:32:15;14.50;;;6.30;;
62951;SDS011;52163;52.212;-1.002;2022-12-10T15:34:47;10.10;;;6.10;;
62951;SDS011;52163;52.212;-1.002;2022-12-10T15:37:19;10.40;;;6.10;;
62951;SDS011;52163;52.212;-1.002;2022-12-10T15:39:49;9.90;;;6.70;;
62951;SDS011;52163;52.212;-1.002;2022-12-10T15:47:41;11.60;;;6.70;;
62951;SDS011;52163;52.212;-1.002;2022-12-10T15:50:08;11.50;;;6.70;;
62951;SDS011;52163;52.212;-1.002;2022-12-10T15:52:34;16.30;;;7.50;;
62951;SDS011;52163;52.212;-1.002;2022-12-10T15:55:00;15.30;;;8.70;;
62951;SDS011;52163;52.212;-1.002;2022-12-10T15:57:33;11.10;;;7.30;;
62951;SDS011;52163;52.212;-1.002;2022-12-10T16:00:01;13.10;;;6.90;;
62951;SDS011;52163;52.212;-1.002;2022-12-10T16:07:44;10.40;;;6.40;;
62951;SDS011;52163;52.212;-1.002;2022-12-10T16:10:11;14.10;;;7.90;;
62951;SDS011;52163;52.212;-1.002;2022-12-10T16:12:39;13.40;;;8.30;;
62951;SDS011;52163;52.212;-1.002;2022-12-10T16:15:06;15.60;;;9.00;;
62951;SDS011;52163;52.212;-1.002;2022-12-10T16:17:37;24.30;;;13.10;;
62951;SDS011;52163;52.212;-1.002;2022-12-10T16:20:13;24.00;;;14.10;;
62951;SDS011;52163;52.212;-1.002;2022-12-10T16:22:45;25.00;;;15.80;;
62951;SDS011;52163;52.212;-1.002;2022-12-10T16:25:11;17.80;;;12.30;;
62951;SDS011;52163;52.212;-1.002;2022-12-10T16:27:37;30.40;;;14.00;;
62951;SDS011;52163;52.212;-1.002;2022-12-10T16:30:11;32.70;;;16.50;;
62951;SDS011;52163;52.212;-1.002;2022-12-10T16:32:38;30.50;;;17.50;;
62951;SDS011;52163;52.212;-1.002;2022-12-10T16:35:03;35.10;;;16.60;;
62951;SDS011;52163;52.212;-1.002;2022-12-10T16:37:29;36.50;;;19.60;;
62951;SDS011;52163;52.212;-1.002;2022-12-10T16:39:54;38.70;;;21.60;;
62951;SDS011;52163;52.212;-1.002;2022-12-10T16:42:20;47.50;;;26.70;;
62951;SDS011;52163;52.212;-1.002;2022-12-10T16:44:45;52.00;;;27.90;;
62951;SDS011;52163;52.212;-1.002;2022-12-10T16:47:11;41.40;;;23.90;;
62951;SDS011;52163;52.212;-1.002;2022-12-10T16:49:37;36.60;;;20.10;;
62951;SDS011;52163;52.212;-1.002;2022-12-10T16:52:03;36.60;;;23.00;;
62951;SDS011;52163;52.212;-1.002;2022-12-10T16:54:29;32.00;;;20.90;;
62951;SDS011;52163;52.212;-1.002;2022-12-10T16:56:55;33.90;;;20.40;;
62951;SDS011;52163;52.212;-1.002;2022-12-10T16:59:20;45.00;;;24.70;;
62951;SDS011;52163;52.212;-1.002;2022-12-10T17:01:46;54.30;;;27.60;;
62951;SDS011;52163;52.212;-1.002;2022-12-10T17:04:11;53.70;;;27.00;;
62951;SDS011;52163;52.212;-1.002;2022-12-10T17:06:37;35.20;;;21.40;;
62951;SDS011;52163;52.212;-1.002;2022-12-10T17:09:02;35.20;;;19.10;;
62951;SDS011;52163;52.212;-1.002;2022-12-10T17:11:31;32.30;;;18.60;;
62951;SDS011;52163;52.212;-1.002;2022-12-10T17:14:26;33.80;;;20.20;;
62951;SDS011;52163;52.212;-1.002;2022-12-10T17:16:57;35.40;;;20.90;;
62951;SDS011;52163;52.212;-1.002;2022-12-10T17:19:27;41.70;;;24.10;;